Time;durP1;ratioP1;P1;durP2;ratioP2;P2;SDS_P1;SDS_P2;PMS_P1;PMS_P2;Temp;Humidity;BMP_temperature;BMP_pressure;BME280_temperature;BME280_humidity;BME280_pressure;Samples;Min_cycle;Max_cycle;Signal;HPM_P1;HPM_P2
2023/01/16 00:00:51;;;;;;;13.05;3.80;;;;;;;;;;5050990;28;20449;-76
2023/01/16 00:03:18;;;;;;;13.27;3.35;;;;;;;;;;5050537;28;20059;-76
2023/01/16 00:05:45;;;;;;;15.30;3.53;;;;;;;;;;5010536;28;1119261;-76
2023/01/16 00:08:11;;;;;;;10.30;3.08;;;;;;;;;;5049574;28;20550;-76
2023/01/16 00:10:38;;;;;;;11.45;3.20;;;;;;;;;;5048363;28;20124;-76
2023/01/16 00:13:05;;;;;;;13.57;3.28;;;;;;;;;;5050724;28;20068;-76
2023/01/16 00:15:31;;;;;;;10.63;3.03;;;;;;;;;;5051653;28;20045;-76
2023/01/16 00:17:57;;;;;;;9.50;2.97;;;;;;;;;;5051499;28;20041;-76
2023/01/16 00:20:24;;;;;;;11.48;2.70;;;;;;;;;;5051236;28;20485;-76
2023/01/16 00:22:50;;;;;;;12.00;2.90;;;;;;;;;;5051624;28;20077;-76
2023/01/16 00:25:17;;;;;;;13.80;3.05;;;;;;;;;;5051227;28;20059;-76
2023/01/16 00:27:43;;;;;;;10.65;2.40;;;;;;;;;;5051430;28;20045;-76
2023/01/16 00:30:10;;;;;;;9.20;2.45;;;;;;;;;;5051535;28;20432;-76
2023/01/16 00:32:36;;;;;;;6.28;1.40;;;;;;;;;;5033550;28;20049;-76
2023/01/16 00:35:03;;;;;;;6.65;1.73;;;;;;;;;;5033383;28;20049;-76
2023/01/16 00:37:29;;;;;;;6.95;2.17;;;;;;;;;;5051152;28;20119;-76
2023/01/16 00:39:56;;;;;;;8.55;2.22;;;;;;;;;;5051149;28;20489;-76
2023/01/16 00:42:22;;;;;;;5.38;1.58;;;;;;;;;;5051102;28;20048;-76
2023/01/16 00:44:48;;;;;;;5.80;1.88;;;;;;;;;;5051473;28;20437;-76
2023/01/16 00:47:15;;;;;;;6.10;1.70;;;;;;;;;;5051021;28;20500;-76
2023/01/16 00:49:41;;;;;;;8.60;1.85;;;;;;;;;;5051473;28;20140;-76
2023/01/16 00:52:07;;;;;;;10.18;3.00;;;;;;;;;;5051463;28;20320;-75
2023/01/16 00:54:34;;;;;;;11.20;3.22;;;;;;;;;;5050997;28;20041;-76
2023/01/16 00:57:00;;;;;;;7.82;3.00;;;;;;;;;;5051047;28;20045;-76
2023/01/16 00:59:26;;;;;;;10.43;2.78;;;;;;;;;;5050891;28;20131;-76
2023/01/16 01:01:53;;;;;;;12.57;3.00;;;;;;;;;;5050992;28;20519;-76
2023/01/16 01:04:19;;;;;;;13.05;3.10;;;;;;;;;;5050834;28;20087;-75
2023/01/16 01:06:46;;;;;;;14.27;3.10;;;;;;;;;;5050629;28;20060;-75
2023/01/16 01:09:12;;;;;;;10.45;2.13;;;;;;;;;;5050920;28;20055;-76
2023/01/16 01:11:38;;;;;;;7.90;2.10;;;;;;;;;;5051033;28;20045;-75
2023/01/16 01:14:05;;;;;;;10.57;2.00;;;;;;;;;;5050930;28;20059;-76
2023/01/16 01:16:31;;;;;;;12.18;2.33;;;;;;;;;;5050855;28;20045;-75
2023/01/16 01:18:58;;;;;;;7.80;2.25;;;;;;;;;;5050800;28;20053;-75
2023/01/16 01:21:24;;;;;;;7.55;1.95;;;;;;;;;;5054338;28;20408;-75
2023/01/16 01:23:50;;;;;;;11.07;2.00;;;;;;;;;;5054645;28;20045;-76
2023/01/16 01:26:17;;;;;;;12.45;2.28;;;;;;;;;;5054494;28;20071;-76
2023/01/16 01:28:43;;;;;;;12.32;2.08;;;;;;;;;;5054525;28;20077;-75
2023/01/16 01:31:11;;;;;;;15.13;2.10;;;;;;;;;;5054239;28;20049;-75
2023/01/16 01:33:38;;;;;;;13.13;2.47;;;;;;;;;;5054095;28;20049;-76
2023/01/16 01:36:04;;;;;;;13.52;2.17;;;;;;;;;;5054198;28;20048;-76
2023/01/16 01:38:31;;;;;;;8.13;1.80;;;;;;;;;;5054330;28;20044;-76
2023/01/16 01:40:57;;;;;;;14.73;2.65;;;;;;;;;;5054407;28;20359;-76
2023/01/16 01:43:43;;;;;;;10.00;1.80;;;;;;;;;;5054105;28;20107;-76
2023/01/16 01:46:18;;;;;;;10.88;2.03;;;;;;;;;;5054420;28;20055;-76
2023/01/16 01:48:47;;;;;;;10.43;2.13;;;;;;;;;;5054105;28;20164;-76
2023/01/16 01:51:13;;;;;;;;;;;;;;;;;;5054275;28;20507;-76
2023/01/16 01:53:42;;;;;;;8.73;2.08;;;;;;;;;;5054135;28;20015;-76
2023/01/16 01:56:12;;;;;;;8.80;1.95;;;;;;;;;;5053565;28;20499;-76
2023/01/16 01:58:39;;;;;;;11.88;2.92;;;;;;;;;;5053798;28;20047;-76
2023/01/16 02:01:06;;;;;;;15.73;2.85;;;;;;;;;;5053922;28;20053;-76
2023/01/16 02:03:35;;;;;;;11.85;2.08;;;;;;;;;;5053779;28;20045;-76
2023/01/16 02:06:05;;;;;;;10.02;2.25;;;;;;;;;;5053553;28;20052;-76
2023/01/16 02:08:32;;;;;;;8.90;2.17;;;;;;;;;;5053819;28;20414;-76
2023/01/16 02:11:08;;;;;;;10.30;2.78;;;;;;;;;;5053518;28;20467;-76
2023/01/16 02:13:38;;;;;;;11.77;2.17;;;;;;;;;;5053971;28;20045;-76
2023/01/16 02:21:41;;;;;;;11.38;2.30;;;;;;;;;;5053614;28;20049;-76
2023/01/16 02:24:27;;;;;;;11.88;2.38;;;;;;;;;;5053271;28;20045;-76
2023/01/16 02:27:00;;;;;;;8.35;1.80;;;;;;;;;;5053475;28;20385;-76
2023/01/16 02:29:45;;;;;;;11.00;2.28;;;;;;;;;;5053221;28;20144;-76
2023/01/16 02:32:23;;;;;;;9.30;2.42;;;;;;;;;;5052090;28;20045;-76
2023/01/16 02:34:56;;;;;;;7.50;1.77;;;;;;;;;;5053303;28;20128;-76
2023/01/16 02:37:41;;;;;;;11.85;2.35;;;;;;;;;;5053229;28;20056;-76
2023/01/16 02:40:13;;;;;;;8.20;2.13;;;;;;;;;;5052881;28;20481;-76
2023/01/16 02:42:42;;;;;;;7.25;1.60;;;;;;;;;;5052914;28;20041;-76
2023/01/16 02:45:09;;;;;;;14.23;2.10;;;;;;;;;;5052798;28;20131;-76
2023/01/16 02:47:56;;;;;;;11.52;2.33;;;;;;;;;;5052856;28;20059;-76
2023/01/16 02:50:43;;;;;;;8.95;2.60;;;;;;;;;;5002341;28;20052;-76
2023/01/16 02:53:14;;;;;;;9.38;1.88;;;;;;;;;;5027793;28;20049;-76
2023/01/16 02:56:03;;;;;;;10.45;2.38;;;;;;;;;;5052465;28;20083;-76
2023/01/16 02:58:32;;;;;;;13.88;2.13;;;;;;;;;;5035337;28;20076;-76
2023/01/16 03:00:59;;;;;;;11.38;2.38;;;;;;;;;;5052737;28;20041;-76
2023/01/16 03:03:44;;;;;;;14.10;2.33;;;;;;;;;;5052659;28;20049;-76
2023/01/16 03:06:19;;;;;;;7.22;2.38;;;;;;;;;;5052231;28;20061;-76
2023/01/16 03:09:02;;;;;;;11.60;2.63;;;;;;;;;;5052721;28;20045;-76
2023/01/16 03:11:30;;;;;;;7.40;2.63;;;;;;;;;;5052707;28;20476;-76
2023/01/16 03:14:03;;;;;;;16.98;3.00;;;;;;;;;;5052624;28;20075;-76
2023/01/16 03:16:35;;;;;;;13.20;3.25;;;;;;;;;;5052238;28;20044;-76
2023/01/16 03:19:20;;;;;;;11.63;2.80;;;;;;;;;;5050973;28;20060;-76
2023/01/16 03:21:59;;;;;;;15.07;3.00;;;;;;;;;;5052108;28;20053;-76
2023/01/16 03:24:26;;;;;;;13.52;3.08;;;;;;;;;;5052734;28;20375;-76
2023/01/16 03:27:12;;;;;;;9.55;3.28;;;;;;;;;;5034234;28;20128;-76
2023/01/16 03:29:43;;;;;;;11.50;3.08;;;;;;;;;;5051943;28;20124;-76
2023/01/16 03:32:21;;;;;;;12.55;2.85;;;;;;;;;;5052104;28;20393;-76
2023/01/16 03:34:53;;;;;;;8.45;2.60;;;;;;;;;;5052187;28;20063;-76
2023/01/16 03:37:26;;;;;;;10.38;2.90;;;;;;;;;;5052195;28;20049;-76
2023/01/16 03:40:03;;;;;;;14.48;2.78;;;;;;;;;;5052092;28;20132;-76
2023/01/16 03:42:30;;;;;;;;;;;;;;;;;;5052023;28;20504;-76
2023/01/16 03:45:01;;;;;;;12.25;2.88;;;;;;;;;;5051691;28;19954;-76
2023/01/16 03:47:30;;;;;;;13.68;3.45;;;;;;;;;;5051816;28;20132;-76
2023/01/16 03:50:03;;;;;;;10.25;2.17;;;;;;;;;;5051650;28;20049;-76
2023/01/16 03:52:39;;;;;;;8.80;2.03;;;;;;;;;;5051872;28;20072;-76
2023/01/16 03:55:11;;;;;;;9.25;2.10;;;;;;;;;;5051508;28;20484;-76
2023/01/16 03:57:39;;;;;;;12.45;2.75;;;;;;;;;;5051908;28;20049;-76
2023/01/16 04:00:06;;;;;;;8.05;1.98;;;;;;;;;;5052064;28;20442;-76
2023/01/16 04:02:43;;;;;;;10.68;2.20;;;;;;;;;;5051684;28;20083;-76
2023/01/16 04:05:18;;;;;;;7.75;1.90;;;;;;;;;;5051721;28;20133;-76
2023/01/16 04:07:47;;;;;;;9.98;2.10;;;;;;;;;;5051522;28;20061;-76
2023/01/16 04:10:20;;;;;;;11.75;1.80;;;;;;;;;;5051452;28;20488;-76
2023/01/16 04:13:06;;;;;;;7.50;1.95;;;;;;;;;;5051471;28;20078;-76
2023/01/16 04:15:34;;;;;;;11.02;2.05;;;;;;;;;;5051779;28;20047;-76
2023/01/16 04:18:00;;;;;;;9.13;1.50;;;;;;;;;;5051621;28;20053;-76
2023/01/16 04:20:28;;;;;;;7.20;1.27;;;;;;;;;;5051291;28;20049;-76
2023/01/16 04:22:54;;;;;;;6.82;1.50;;;;;;;;;;5051584;28;20404;-76
2023/01/16 04:25:21;;;;;;;8.60;1.77;;;;;;;;;;5051178;28;20526;-77
2023/01/16 04:27:47;;;;;;;8.10;1.30;;;;;;;;;;5051398;28;20136;-76
2023/01/16 04:30:15;;;;;;;7.45;1.80;;;;;;;;;;5051293;28;20049;-76
2023/01/16 04:32:42;;;;;;;9.50;1.88;;;;;;;;;;5051217;28;20052;-76
2023/01/16 04:35:09;;;;;;;6.85;2.13;;;;;;;;;;5051261;28;20485;-77
2023/01/16 04:37:35;;;;;;;7.68;1.90;;;;;;;;;;5051389;28;20067;-76
2023/01/16 04:40:02;;;;;;;6.43;1.63;;;;;;;;;;5051474;28;20103;-76
2023/01/16 04:42:28;;;;;;;7.13;1.50;;;;;;;;;;5051394;28;20135;-76
2023/01/16 04:44:55;;;;;;;6.03;1.42;;;;;;;;;;5051158;28;20052;-76
2023/01/16 04:47:21;;;;;;;6.85;1.60;;;;;;;;;;5051119;28;20131;-76
2023/01/16 04:49:47;;;;;;;7.45;1.67;;;;;;;;;;5051122;28;20053;-76
2023/01/16 04:52:14;;;;;;;4.57;1.30;;;;;;;;;;5051048;28;20055;-76
2023/01/16 04:54:40;;;;;;;4.93;1.35;;;;;;;;;;5051803;28;20056;-76
2023/01/16 04:57:07;;;;;;;5.10;1.15;;;;;;;;;;5054963;28;20053;-76
2023/01/16 04:59:33;;;;;;;4.47;1.10;;;;;;;;;;5054872;28;20386;-76
2023/01/16 05:01:59;;;;;;;2.40;1.20;;;;;;;;;;5055082;28;20404;-76
2023/01/16 05:04:26;;;;;;;4.47;0.88;;;;;;;;;;5054769;28;20129;-76
2023/01/16 05:06:52;;;;;;;4.55;1.20;;;;;;;;;;5054649;28;20059;-76
2023/01/16 05:09:19;;;;;;;2.25;0.70;;;;;;;;;;5054678;28;20057;-76
2023/01/16 05:11:45;;;;;;;4.60;1.30;;;;;;;;;;5054599;28;20052;-76
2023/01/16 05:14:11;;;;;;;4.75;1.38;;;;;;;;;;5054485;28;20514;-76
2023/01/16 05:16:41;;;;;;;2.53;1.00;;;;;;;;;;5054397;28;20519;-76
2023/01/16 05:19:08;;;;;;;4.97;1.35;;;;;;;;;;5054607;28;20057;-76
2023/01/16 05:21:35;;;;;;;7.32;1.50;;;;;;;;;;5054537;28;20123;-76
2023/01/16 05:24:01;;;;;;;4.28;1.00;;;;;;;;;;5054539;28;20044;-76
2023/01/16 05:26:28;;;;;;;4.38;1.30;;;;;;;;;;5054363;28;20091;-76
2023/01/16 05:28:54;;;;;;;1.70;0.90;;;;;;;;;;5054503;28;20045;-76
2023/01/16 05:31:20;;;;;;;3.10;0.95;;;;;;;;;;5054516;28;20123;-76
2023/01/16 05:33:47;;;;;;;3.50;0.80;;;;;;;;;;5054521;28;20972;-76
2023/01/16 05:36:13;;;;;;;3.13;0.90;;;;;;;;;;5054379;28;20506;-76
2023/01/16 05:38:40;;;;;;;1.88;0.93;;;;;;;;;;5054204;28;20045;-76
2023/01/16 05:41:06;;;;;;;3.72;0.85;;;;;;;;;;5054088;28;20041;-76
2023/01/16 05:43:33;;;;;;;3.10;0.82;;;;;;;;;;5054342;28;20128;-76
2023/01/16 05:45:59;;;;;;;3.50;1.10;;;;;;;;;;5053974;28;20533;-76
2023/01/16 05:48:26;;;;;;;3.92;0.93;;;;;;;;;;5036508;28;20052;-76
2023/01/16 05:50:52;;;;;;;1.48;0.82;;;;;;;;;;5053827;28;20497;-76
2023/01/16 05:53:18;;;;;;;4.57;1.20;;;;;;;;;;5036141;28;20132;-76
2023/01/16 05:55:46;;;;;;;4.05;1.05;;;;;;;;;;5046065;28;20049;-76
2023/01/16 05:58:13;;;;;;;4.47;1.00;;;;;;;;;;5053504;28;20048;-76
2023/01/16 06:00:40;;;;;;;3.05;1.00;;;;;;;;;;5053913;28;20127;-76
2023/01/16 06:03:07;;;;;;;4.78;1.40;;;;;;;;;;5053865;28;20037;-76
2023/01/16 06:05:34;;;;;;;2.50;0.93;;;;;;;;;;5053427;28;20083;-76
2023/01/16 06:08:00;;;;;;;3.70;1.30;;;;;;;;;;5053539;28;20519;-76
2023/01/16 06:10:27;;;;;;;4.95;0.93;;;;;;;;;;5053492;28;20053;-76
2023/01/16 06:12:53;;;;;;;4.50;1.02;;;;;;;;;;5053413;28;20055;-76
2023/01/16 06:15:20;;;;;;;3.20;1.20;;;;;;;;;;5053665;28;20084;-76
2023/01/16 06:17:46;;;;;;;3.95;0.80;;;;;;;;;;5053419;28;20049;-76
2023/01/16 06:20:13;;;;;;;2.53;0.90;;;;;;;;;;5053302;28;20484;-76
2023/01/16 06:22:41;;;;;;;1.60;0.80;;;;;;;;;;5053620;28;20040;-76
2023/01/16 06:25:08;;;;;;;2.65;1.30;;;;;;;;;;5053172;28;20124;-76
2023/01/16 06:27:34;;;;;;;2.85;0.80;;;;;;;;;;5053440;28;20098;-76
2023/01/16 06:30:00;;;;;;;3.75;0.90;;;;;;;;;;5053124;28;20081;-76
2023/01/16 06:32:27;;;;;;;3.33;0.90;;;;;;;;;;5035649;28;20445;-76
2023/01/16 06:34:53;;;;;;;4.28;1.17;;;;;;;;;;5053189;28;20128;-76
2023/01/16 06:37:19;;;;;;;3.55;1.00;;;;;;;;;;5053091;28;20044;-76
2023/01/16 06:39:46;;;;;;;2.47;0.70;;;;;;;;;;5052881;28;20493;-76
2023/01/16 06:42:12;;;;;;;1.77;0.73;;;;;;;;;;5052927;28;20618;-76
2023/01/16 06:44:39;;;;;;;1.67;0.80;;;;;;;;;;5052877;28;20469;-76
2023/01/16 06:47:06;;;;;;;3.83;0.80;;;;;;;;;;5053127;28;20052;-76
2023/01/16 06:49:33;;;;;;;0.80;0.50;;;;;;;;;;5052795;28;20059;-76
2023/01/16 06:52:00;;;;;;;2.88;0.80;;;;;;;;;;5052801;28;20132;-76
2023/01/16 06:54:26;;;;;;;1.27;0.70;;;;;;;;;;5052721;28;20060;-76
2023/01/16 06:56:53;;;;;;;2.17;0.50;;;;;;;;;;5052783;28;20048;-76
2023/01/16 06:59:19;;;;;;;1.42;0.50;;;;;;;;;;5053088;28;20131;-76
2023/01/16 07:01:45;;;;;;;4.30;0.88;;;;;;;;;;5052665;28;20041;-76
2023/01/16 07:04:12;;;;;;;1.95;0.60;;;;;;;;;;5052786;28;20083;-73
2023/01/16 07:06:39;;;;;;;1.05;0.60;;;;;;;;;;5052304;28;20061;-72
2023/01/16 07:09:06;;;;;;;2.05;0.60;;;;;;;;;;5052450;28;20052;-73
2023/01/16 07:11:32;;;;;;;1.25;0.68;;;;;;;;;;5034831;28;20127;-73
2023/01/16 07:24:59;;;;;;;1.15;0.90;;;;;;;;;;5052234;28;20513;-72
2023/01/16 07:27:26;;;;;;;1.15;0.73;;;;;;;;;;5051969;28;20048;-73
2023/01/16 07:29:52;;;;;;;1.27;0.50;;;;;;;;;;5052193;28;20131;-72
2023/01/16 07:32:19;;;;;;;1.40;0.70;;;;;;;;;;5051945;28;20053;-73
2023/01/16 07:34:45;;;;;;;0.60;0.40;;;;;;;;;;5050416;28;20072;-72
2023/01/16 07:37:12;;;;;;;0.98;0.50;;;;;;;;;;5048987;28;20077;-73
2023/01/16 07:39:38;;;;;;;0.60;0.50;;;;;;;;;;5047072;28;20132;-73
2023/01/16 07:42:06;;;;;;;1.08;0.65;;;;;;;;;;5048429;28;20102;-73
2023/01/16 07:44:33;;;;;;;0.80;0.70;;;;;;;;;;5050726;28;20124;-73
2023/01/16 07:46:59;;;;;;;0.68;0.40;;;;;;;;;;5045610;28;20059;-72
2023/01/16 07:49:26;;;;;;;0.93;0.50;;;;;;;;;;5049499;28;20572;-72
2023/01/16 07:51:52;;;;;;;0.40;0.40;;;;;;;;;;5051905;28;20057;-72
2023/01/16 07:54:21;;;;;;;0.50;0.40;;;;;;;;;;5051973;28;20052;-71
2023/01/16 07:56:47;;;;;;;1.50;0.47;;;;;;;;;;5051578;28;20048;-72
2023/01/16 07:59:14;;;;;;;0.47;0.30;;;;;;;;;;5050159;28;20507;-71
2023/01/16 08:01:42;;;;;;;1.27;0.40;;;;;;;;;;5050681;28;20483;-72
2023/01/16 08:04:08;;;;;;;0.35;0.35;;;;;;;;;;5049749;28;20056;-72
2023/01/16 08:06:35;;;;;;;0.28;0.28;;;;;;;;;;5051215;28;20060;-73
2023/01/16 08:09:01;;;;;;;0.30;0.30;;;;;;;;;;5051690;28;20060;-72
2023/01/16 08:11:38;;;;;;;0.77;0.30;;;;;;;;;;5051540;28;20079;-72
2023/01/16 08:14:05;;;;;;;0.38;0.32;;;;;;;;;;5051866;28;20061;-72
2023/01/16 08:16:32;;;;;;;0.45;0.40;;;;;;;;;;5048791;28;20053;-73
2023/01/16 08:18:58;;;;;;;0.73;0.55;;;;;;;;;;5049967;28;20072;-72
2023/01/16 08:21:26;;;;;;;0.40;0.40;;;;;;;;;;5051727;28;20084;-72
2023/01/16 08:23:52;;;;;;;0.50;0.50;;;;;;;;;;5051104;28;20135;-72
2023/01/16 08:26:19;;;;;;;0.68;0.35;;;;;;;;;;5051493;28;20056;-73
2023/01/16 08:28:45;;;;;;;1.13;0.30;;;;;;;;;;5051519;28;20060;-72
2023/01/16 08:31:13;;;;;;;0.85;0.43;;;;;;;;;;5054393;28;20051;-72
2023/01/16 08:33:40;;;;;;;0.88;0.40;;;;;;;;;;5055418;28;20060;-72
2023/01/16 08:36:08;;;;;;;1.02;0.57;;;;;;;;;;5055516;28;20041;-71
2023/01/16 08:38:35;;;;;;;0.30;0.30;;;;;;;;;;5055295;28;20183;-73
2023/01/16 08:41:01;;;;;;;0.50;0.30;;;;;;;;;;5055041;28;20508;-71
2023/01/16 08:51:55;;;;;;;0.63;0.40;;;;;;;;;;5055149;28;20472;-72
2023/01/16 08:54:22;;;;;;;0.63;0.38;;;;;;;;;;5055135;28;20057;-72
2023/01/16 08:56:48;;;;;;;0.30;0.30;;;;;;;;;;5054860;28;20041;-71
2023/01/16 08:59:14;;;;;;;0.90;0.30;;;;;;;;;;5054887;28;20049;-71
2023/01/16 09:01:41;;;;;;;0.43;0.30;;;;;;;;;;5036696;28;20116;-71
2023/01/16 09:04:08;;;;;;;0.30;0.20;;;;;;;;;;5055060;28;20045;-71
2023/01/16 09:06:35;;;;;;;0.40;0.40;;;;;;;;;;5054574;28;20588;-71
2023/01/16 09:09:03;;;;;;;1.52;0.40;;;;;;;;;;5030226;28;20435;-72
2023/01/16 09:14:14;;;;;;;1.05;0.25;;;;;;;;;;5052024;28;20062;-72
2023/01/16 09:16:51;;;;;;;0.50;0.20;;;;;;;;;;5054119;28;20126;-72
2023/01/16 09:19:17;;;;;;;0.88;0.30;;;;;;;;;;5035974;28;20045;-72
2023/01/16 09:21:44;;;;;;;0.20;0.20;;;;;;;;;;5053889;28;20040;-72
2023/01/16 09:24:10;;;;;;;0.30;0.30;;;;;;;;;;5053817;28;20048;-72
2023/01/16 09:26:36;;;;;;;0.22;0.20;;;;;;;;;;5053692;28;20103;-72
2023/01/16 09:29:03;;;;;;;0.80;0.60;;;;;;;;;;5051989;28;20053;-72
2023/01/16 09:31:29;;;;;;;1.38;0.60;;;;;;;;;;5035157;28;20480;-72
2023/01/16 09:33:55;;;;;;;0.52;0.40;;;;;;;;;;5033221;28;20041;-72
2023/01/16 09:36:22;;;;;;;1.75;1.33;;;;;;;;;;5033396;28;20067;-72
2023/01/16 09:38:48;;;;;;;1.35;1.13;;;;;;;;;;5033257;28;20041;-73
2023/01/16 09:44:02;;;;;;;;;;;;;;;;;;5004370;28;20152;-73
2023/01/16 09:46:31;;;;;;;0.40;0.40;;;;;;;;;;5035133;28;19939;-73
2023/01/16 09:48:59;;;;;;;0.75;0.30;;;;;;;;;;5033177;28;20072;-73
2023/01/16 09:51:32;;;;;;;0.55;0.20;;;;;;;;;;5033063;28;20067;-72
2023/01/16 09:59:30;;;;;;;;;;;;;;;;;;5033610;28;20041;-71
2023/01/16 10:02:07;;;;;;;0.20;0.20;;;;;;;;;;5033111;28;19932;-72
2023/01/16 10:04:35;;;;;;;0.20;0.17;;;;;;;;;;5035813;28;20045;-73
2023/01/16 10:07:20;;;;;;;0.00;0.00;;;;;;;;;;5052995;28;20139;-72
2023/01/16 10:09:53;;;;;;;1.15;0.20;;;;;;;;;;5053034;28;20049;-73
2023/01/16 10:12:21;;;;;;;0.57;0.20;;;;;;;;;;5051176;28;20156;-73
2023/01/16 10:14:53;;;;;;;2.00;0.90;;;;;;;;;;5052903;28;20056;-73
2023/01/16 10:17:20;;;;;;;1.50;1.00;;;;;;;;;;5052816;28;20493;-73
2023/01/16 10:20:12;;;;;;;0.60;0.60;;;;;;;;;;5052894;28;20055;-73
2023/01/16 10:22:44;;;;;;;0.85;0.60;;;;;;;;;;5046063;28;20091;-73
2023/01/16 10:25:11;;;;;;;1.33;1.00;;;;;;;;;;5052737;28;20124;-73
2023/01/16 10:27:46;;;;;;;1.55;1.05;;;;;;;;;;5043310;28;20061;-73
2023/01/16 10:30:14;;;;;;;1.63;1.03;;;;;;;;;;5051857;28;20081;-73
2023/01/16 10:32:43;;;;;;;2.67;1.30;;;;;;;;;;5052227;28;20045;-73
2023/01/16 10:35:20;;;;;;;1.52;1.20;;;;;;;;;;5052091;28;20052;-73
2023/01/16 10:37:47;;;;;;;1.88;1.33;;;;;;;;;;5051964;28;20076;-73
2023/01/16 10:40:24;;;;;;;3.30;1.55;;;;;;;;;;5052006;28;20423;-73
2023/01/16 10:51:29;;;;;;;2.90;1.83;;;;;;;;;;5052148;28;20128;-73
2023/01/16 10:53:55;;;;;;;6.38;1.90;;;;;;;;;;5050808;28;20390;-73
2023/01/16 10:56:21;;;;;;;2.92;2.28;;;;;;;;;;5051934;28;20394;-73
2023/01/16 10:58:48;;;;;;;4.32;2.30;;;;;;;;;;5051962;28;20060;-73
2023/01/16 11:01:18;;;;;;;3.05;1.85;;;;;;;;;;5051599;28;20045;-73
2023/01/16 11:03:47;;;;;;;4.03;2.10;;;;;;;;;;5051956;28;20460;-73
2023/01/16 11:06:13;;;;;;;4.10;1.70;;;;;;;;;;5051489;28;20057;-73
2023/01/16 11:08:40;;;;;;;3.20;1.10;;;;;;;;;;5051568;28;20139;-73
2023/01/16 11:18:27;;;;;;;2.50;1.23;;;;;;;;;;5051928;28;20041;-73
2023/01/16 11:19:27;;;;;;;1.27;0.77;;;;;;;;;;5051605;28;20044;-73
2023/01/16 11:21:56;;;;;;;3.60;1.35;;;;;;;;;;5051200;28;20049;-73
2023/01/16 11:24:29;;;;;;;3.13;1.60;;;;;;;;;;5051562;28;20460;-73
2023/01/16 11:26:57;;;;;;;3.55;1.45;;;;;;;;;;5051349;28;20139;-73
2023/01/16 11:29:24;;;;;;;1.77;1.17;;;;;;;;;;5051071;28;20471;-73
2023/01/16 11:31:54;;;;;;;4.32;1.08;;;;;;;;;;5051370;28;20053;-74
2023/01/16 11:34:25;;;;;;;2.28;0.77;;;;;;;;;;5051709;28;20049;-73
2023/01/16 11:36:53;;;;;;;1.65;0.88;;;;;;;;;;5050967;28;20408;-74
2023/01/16 11:39:21;;;;;;;;;;;;;;;;;;5051633;28;20037;-74
2023/01/16 11:41:49;;;;;;;1.48;1.02;;;;;;;;;;5051942;28;20305;-74
2023/01/16 11:47:03;;;;;;;1.58;1.00;;;;;;;;;;5051165;28;20479;-74
2023/01/16 11:49:40;;;;;;;2.55;0.80;;;;;;;;;;5051544;28;20040;-74
2023/01/16 11:52:12;;;;;;;3.80;1.20;;;;;;;;;;5051160;28;20139;-74
2023/01/16 11:54:39;;;;;;;1.67;0.80;;;;;;;;;;5051465;28;20061;-74
2023/01/16 11:57:21;;;;;;;1.08;0.65;;;;;;;;;;5051286;28;20056;-74
2023/01/16 11:59:54;;;;;;;2.08;0.60;;;;;;;;;;5051139;28;20065;-74
2023/01/16 12:02:40;;;;;;;5.03;2.08;;;;;;;;;;5051273;28;20463;-74
2023/01/16 12:08:06;;;;;;;1.02;0.60;;;;;;;;;;5051357;28;20140;-74
2023/01/16 12:10:42;;;;;;;1.23;0.63;;;;;;;;;;5050745;28;20047;-73
2023/01/16 12:16:05;;;;;;;0.60;0.47;;;;;;;;;;5050835;28;20083;-74
2023/01/16 12:18:32;;;;;;;1.67;0.70;;;;;;;;;;5050961;28;20131;-73
2023/01/16 12:21:02;;;;;;;1.00;0.68;;;;;;;;;;5045881;28;20480;-74
2023/01/16 12:23:40;;;;;;;0.63;0.40;;;;;;;;;;5049557;28;20061;-74
2023/01/16 12:26:28;;;;;;;0.93;0.30;;;;;;;;;;5051065;28;20099;-74
2023/01/16 12:29:00;;;;;;;1.55;0.50;;;;;;;;;;5050406;28;20049;-74
2023/01/16 12:31:35;;;;;;;0.95;0.40;;;;;;;;;;5051074;28;20132;-74
2023/01/16 12:34:04;;;;;;;1.20;0.40;;;;;;;;;;5050930;28;20527;-74
2023/01/16 12:36:31;;;;;;;0.55;0.50;;;;;;;;;;5051466;28;20045;-74
2023/01/16 12:39:10;;;;;;;1.67;0.45;;;;;;;;;;5051197;28;20049;-74
2023/01/16 12:44:36;;;;;;;3.70;0.75;;;;;;;;;;5051412;28;20075;-74
2023/01/16 12:47:06;;;;;;;1.80;0.35;;;;;;;;;;5051396;28;20053;-74
2023/01/16 12:49:32;;;;;;;0.80;0.40;;;;;;;;;;5051220;28;20139;-74
2023/01/16 12:51:58;;;;;;;0.82;0.40;;;;;;;;;;5051450;28;20052;-74
2023/01/16 12:54:44;;;;;;;2.08;0.55;;;;;;;;;;5051357;28;20067;-74
2023/01/16 12:57:10;;;;;;;2.15;0.50;;;;;;;;;;5051297;28;20044;-74
2023/01/16 12:59:38;;;;;;;0.88;0.30;;;;;;;;;;5051341;28;20049;-74
2023/01/16 13:02:13;;;;;;;1.15;0.47;;;;;;;;;;5051170;28;20049;-75
2023/01/16 13:04:43;;;;;;;2.08;1.05;;;;;;;;;;5051296;28;20409;-75
2023/01/16 13:07:14;;;;;;;1.67;0.40;;;;;;;;;;5050729;28;20057;-75
2023/01/16 13:09:47;;;;;;;2.88;0.80;;;;;;;;;;5051211;28;20049;-75
2023/01/16 13:15:17;;;;;;;1.13;0.30;;;;;;;;;;5051503;28;20084;-75
2023/01/16 13:18:05;;;;;;;0.90;0.38;;;;;;;;;;5054252;28;20045;-75
2023/01/16 13:20:32;;;;;;;1.85;0.60;;;;;;;;;;5054607;28;20564;-75
2023/01/16 13:23:01;;;;;;;1.77;0.50;;;;;;;;;;5054774;28;20079;-75
2023/01/16 13:25:34;;;;;;;1.85;0.60;;;;;;;;;;5054099;28;20045;-75
2023/01/16 13:28:04;;;;;;;3.15;0.40;;;;;;;;;;5053662;28;20139;-74
2023/01/16 13:30:31;;;;;;;0.85;0.40;;;;;;;;;;5053964;28;20512;-74
2023/01/16 13:32:59;;;;;;;0.80;0.60;;;;;;;;;;5053873;28;20049;-74
2023/01/16 13:35:34;;;;;;;1.33;0.70;;;;;;;;;;5053903;28;20481;-75
2023/01/16 13:38:17;;;;;;;2.63;0.50;;;;;;;;;;5053972;28;20052;-74
2023/01/16 13:40:49;;;;;;;1.65;0.47;;;;;;;;;;5053685;28;20045;-74
2023/01/16 13:46:18;;;;;;;1.98;0.60;;;;;;;;;;5053618;28;20037;-75
2023/01/16 13:48:51;;;;;;;1.58;0.52;;;;;;;;;;5051199;28;20057;-74
2023/01/16 13:51:19;;;;;;;2.13;0.40;;;;;;;;;;5047081;28;20056;-74
2023/01/16 13:53:49;;;;;;;0.22;0.10;;;;;;;;;;5053497;28;20504;-74
2023/01/16 13:56:20;;;;;;;1.13;0.50;;;;;;;;;;5053477;28;20127;-74
2023/01/16 13:58:48;;;;;;;2.28;0.40;;;;;;;;;;5053860;28;20049;-75
2023/01/16 14:01:29;;;;;;;1.92;0.77;;;;;;;;;;5053744;28;20106;-75
2023/01/16 14:04:14;;;;;;;0.93;0.40;;;;;;;;;;5053714;28;20044;-75
2023/01/16 14:06:48;;;;;;;1.25;0.30;;;;;;;;;;5041189;28;20135;-76
2023/01/16 14:09:17;;;;;;;0.82;0.40;;;;;;;;;;5052252;28;20360;-76
2023/01/16 14:11:58;;;;;;;1.58;0.50;;;;;;;;;;5034598;28;20088;-76
2023/01/16 14:17:10;;;;;;;1.92;0.50;;;;;;;;;;5052350;28;20098;-76
2023/01/16 14:19:57;;;;;;;3.88;2.00;;;;;;;;;;5052925;28;20073;-77
2023/01/16 14:24:56;;;;;;;1.40;0.60;;;;;;;;;;5053101;28;20073;-77
2023/01/16 14:27:30;;;;;;;1.85;1.35;;;;;;;;;;5051501;28;20140;-77
2023/01/16 14:30:04;;;;;;;3.63;2.60;;;;;;;;;;5042918;28;20053;-75
2023/01/16 14:32:31;;;;;;;2.65;0.88;;;;;;;;;;5052641;28;20416;-76
2023/01/16 14:34:57;;;;;;;2.03;0.57;;;;;;;;;;5052851;28;20057;-76
2023/01/16 14:37:27;;;;;;;1.43;0.37;;;;;;;;;;5044558;28;20059;-75
2023/01/16 14:39:57;;;;;;;1.73;0.52;;;;;;;;;;5052395;28;20061;-76
2023/01/16 14:56:57;;;;;;;2.65;0.50;;;;;;;;;;5050403;28;20056;-75
2023/01/16 14:59:44;;;;;;;1.92;0.90;;;;;;;;;;5051987;28;20398;-76
2023/01/16 15:02:19;;;;;;;2.78;1.40;;;;;;;;;;5018873;28;20051;-75
2023/01/16 15:04:54;;;;;;;2.42;0.70;;;;;;;;;;5041810;28;20052;-75
2023/01/16 15:07:42;;;;;;;1.92;0.82;;;;;;;;;;5051245;28;20044;-74
2023/01/16 15:10:27;;;;;;;0.90;0.55;;;;;;;;;;5038856;28;20485;-76
2023/01/16 15:13:11;;;;;;;4.47;1.95;;;;;;;;;;5033855;28;20047;-75
2023/01/16 15:15:38;;;;;;;3.10;1.33;;;;;;;;;;5051898;28;20047;-75
2023/01/16 15:23:36;;;;;;;1.58;0.60;;;;;;;;;;5051860;28;20083;-76
2023/01/16 15:26:02;;;;;;;0.80;0.68;;;;;;;;;;5052053;28;20049;-76
2023/01/16 15:28:50;;;;;;;1.67;0.80;;;;;;;;;;5048123;28;20095;-76
2023/01/16 15:31:22;;;;;;;1.30;0.35;;;;;;;;;;5051642;28;20045;-75
2023/01/16 15:34:12;;;;;;;1.23;0.57;;;;;;;;;;5051486;28;20143;-75
2023/01/16 15:36:40;;;;;;;1.52;0.70;;;;;;;;;;5028715;28;20080;-76
2023/01/16 15:39:07;;;;;;;;;;;;;;;;;;5051579;28;20060;-75
2023/01/16 15:47:13;;;;;;;2.58;1.35;;;;;;;;;;5051551;28;20060;-75
2023/01/16 15:49:52;;;;;;;12.13;8.32;;;;;;;;;;5051341;28;20087;-76
2023/01/16 15:52:18;;;;;;;14.80;8.82;;;;;;;;;;5051511;28;20411;-76
2023/01/16 15:54:45;;;;;;;2.25;1.83;;;;;;;;;;5051499;28;20082;-76
2023/01/16 15:57:18;;;;;;;4.78;2.22;;;;;;;;;;5031414;28;20047;-76
2023/01/16 15:59:49;;;;;;;12.27;7.35;;;;;;;;;;5051167;28;20053;-75
2023/01/16 16:02:20;;;;;;;4.90;2.72;;;;;;;;;;5051279;28;20052;-75
2023/01/16 16:04:49;;;;;;;8.57;5.03;;;;;;;;;;5051010;28;20048;-75
2023/01/16 16:07:15;;;;;;;6.53;3.00;;;;;;;;;;5050785;28;20041;-76
2023/01/16 16:09:43;;;;;;;3.30;2.60;;;;;;;;;;5051151;28;20056;-75
2023/01/16 16:12:10;;;;;;;3.42;2.10;;;;;;;;;;5051234;28;20079;-76
2023/01/16 16:20:24;;;;;;;6.57;2.40;;;;;;;;;;5050983;28;20084;-76
2023/01/16 16:22:51;;;;;;;3.50;2.05;;;;;;;;;;5033238;28;20099;-76
2023/01/16 16:25:23;;;;;;;2.72;1.60;;;;;;;;;;5033137;28;20049;-76
2023/01/16 16:27:49;;;;;;;2.25;1.73;;;;;;;;;;5051048;28;20049;-76
2023/01/16 16:30:22;;;;;;;2.70;1.63;;;;;;;;;;5050558;28;20798;-76
2023/01/16 16:32:49;;;;;;;3.65;2.10;;;;;;;;;;5050820;28;20052;-75
2023/01/16 16:35:17;;;;;;;2.53;1.80;;;;;;;;;;5050689;28;20056;-76
2023/01/16 16:37:45;;;;;;;3.30;1.45;;;;;;;;;;5050560;28;20060;-76
2023/01/16 16:40:13;;;;;;;3.90;1.85;;;;;;;;;;5050577;28;20084;-76
2023/01/16 16:42:43;;;;;;;5.07;1.40;;;;;;;;;;5050629;28;20487;-76